createdAt,value
2023-03-09T00:01:38.849Z,8.43
2023-03-09T00:04:09.388Z,9.43
2023-03-09T00:06:39.042Z,8.75
2023-03-09T00:09:08.968Z,9.25
2023-03-09T00:11:37.210Z,8.63
2023-03-09T00:14:06.339Z,8.10
2023-03-09T00:16:34.671Z,8.75
2023-03-09T00:19:03.464Z,9.25
2023-03-09T00:21:39.787Z,8.20
2023-03-09T00:24:11.801Z,9.15
2023-03-09T00:26:41.774Z,8.77
2023-03-09T00:29:11.519Z,9.10
2023-03-09T00:31:40.768Z,9.77
2023-03-09T00:34:09.878Z,8.75
2023-03-09T00:36:38.865Z,8.40
2023-03-09T00:39:07.761Z,9.35
2023-03-09T00:41:37.464Z,9.20
2023-03-09T00:44:07.694Z,11.15
2023-03-09T00:46:36.461Z,10.73
2023-03-09T00:49:07.558Z,10.48
2023-03-09T00:51:37.375Z,10.93
2023-03-09T00:54:06.985Z,10.48
2023-03-09T00:56:36.968Z,12.07
2023-03-09T00:59:05.992Z,10.40
2023-03-09T01:01:34.552Z,10.43
2023-03-09T01:04:04.054Z,10.70
2023-03-09T01:06:33.403Z,11.20
2023-03-09T01:09:02.423Z,10.95
2023-03-09T01:11:32.135Z,10.77
2023-03-09T01:14:02.048Z,10.48
2023-03-09T01:16:30.751Z,10.27
2023-03-09T01:18:59.202Z,10.43
2023-03-09T01:21:27.359Z,10.68
2023-03-09T01:23:57.272Z,11.55
2023-03-09T01:26:25.550Z,11.30
2023-03-09T01:28:53.763Z,10.50
2023-03-09T01:31:23.417Z,11.27
2023-03-09T01:33:52.636Z,10.57
2023-03-09T01:36:21.596Z,11.18
2023-03-09T01:38:50.233Z,10.57
2023-03-09T01:41:20.663Z,10.98
2023-03-09T01:43:50.389Z,10.60
2023-03-09T01:46:49.854Z,11.48
2023-03-09T01:49:33.597Z,11.10
2023-03-09T01:52:11.512Z,10.80
2023-03-09T01:54:46.257Z,11.18
2023-03-09T01:57:20.452Z,12.02
2023-03-09T01:59:50.962Z,12.07
2023-03-09T02:02:24.007Z,12.43
2023-03-09T02:04:58.901Z,11.35
2023-03-09T02:07:28.349Z,12.68
2023-03-09T02:10:02.819Z,10.75
2023-03-09T02:12:33.198Z,11.38
2023-03-09T02:15:05.536Z,11.55
2023-03-09T02:17:36.402Z,11.98
2023-03-09T02:20:14.359Z,12.40
2023-03-09T02:22:45.026Z,12.43
2023-03-09T02:25:23.719Z,11.85
2023-03-09T02:27:55.046Z,13.52
2023-03-09T02:30:26.366Z,13.52
2023-03-09T02:33:05.596Z,11.68
2023-03-09T02:35:35.318Z,13.23
2023-03-09T02:38:04.422Z,13.18
2023-03-09T02:40:39.344Z,12.77
2023-03-09T02:43:14.728Z,13.25
2023-03-09T02:45:45.254Z,12.45
2023-03-09T02:48:14.301Z,13.55
2023-03-09T02:50:44.203Z,12.52
2023-03-09T02:53:13.263Z,13.38
2023-03-09T02:55:41.856Z,13.88
2023-03-09T02:58:13.824Z,14.18
2023-03-09T03:00:42.097Z,13.50
2023-03-09T03:03:10.740Z,13.95
2023-03-09T03:05:39.221Z,15.23
2023-03-09T03:08:08.551Z,14.77
2023-03-09T03:10:36.773Z,14.32
2023-03-09T03:13:06.557Z,15.85
2023-03-09T03:15:36.626Z,15.00
2023-03-09T03:18:06.692Z,14.48
2023-03-09T03:20:36.508Z,15.00
2023-03-09T03:23:06.525Z,14.38
2023-03-09T03:25:43.224Z,15.90
2023-03-09T03:28:12.809Z,15.75
2023-03-09T03:30:43.086Z,16.27
2023-03-09T03:33:12.806Z,14.93
2023-03-09T03:35:42.767Z,16.65
2023-03-09T03:38:12.529Z,16.67
2023-03-09T03:40:41.461Z,15.90
2023-03-09T03:43:12.143Z,16.45
2023-03-09T03:45:44.868Z,16.10
2023-03-09T03:48:13.389Z,15.95
2023-03-09T03:50:42.016Z,16.05
2023-03-09T03:53:10.407Z,16.80
2023-03-09T03:55:39.237Z,16.15
2023-03-09T03:58:08.018Z,17.42
2023-03-09T04:00:38.061Z,16.23
2023-03-09T04:03:12.623Z,15.63
2023-03-09T04:05:47.417Z,16.15
2023-03-09T04:08:17.256Z,17.23
2023-03-09T04:10:47.639Z,16.77
2023-03-09T04:13:17.801Z,18.55
2023-03-09T04:15:46.986Z,15.98
2023-03-09T04:18:16.910Z,15.98
2023-03-09T04:20:46.632Z,16.60
2023-03-09T04:23:16.299Z,16.15
2023-03-09T04:25:57.685Z,16.75
2023-03-09T04:28:31.821Z,16.50
2023-03-09T04:31:01.306Z,16.88
2023-03-09T04:33:34.715Z,16.90
2023-03-09T04:36:05.768Z,16.83
2023-03-09T04:38:37.577Z,17.75
2023-03-09T04:41:07.985Z,17.23
2023-03-09T04:43:36.883Z,16.63
2023-03-09T04:46:07.364Z,15.60
2023-03-09T04:48:38.583Z,17.27
2023-03-09T04:51:09.738Z,16.60
2023-03-09T04:53:38.301Z,16.15
2023-03-09T04:56:08.342Z,16.95
2023-03-09T04:58:44.059Z,16.23
2023-03-09T05:01:13.123Z,16.20
2023-03-09T05:03:43.390Z,15.57
2023-03-09T05:06:13.342Z,16.60
2023-03-09T05:08:42.829Z,15.82
2023-03-09T05:11:11.150Z,15.63
2023-03-09T05:13:41.591Z,14.65
2023-03-09T05:16:14.646Z,15.32
2023-03-09T05:18:50.405Z,16.23
2023-03-09T05:21:21.051Z,15.07
2023-03-09T05:23:50.583Z,15.00
2023-03-09T05:26:19.309Z,14.75
2023-03-09T05:28:52.296Z,15.00
2023-03-09T05:31:21.813Z,14.82
2023-03-09T05:33:54.059Z,14.25
2023-03-09T05:36:24.421Z,16.23
2023-03-09T05:38:55.176Z,14.05
2023-03-09T05:41:24.338Z,14.52
2023-03-09T05:44:00.334Z,15.00
2023-03-09T05:46:30.570Z,12.75
2023-03-09T05:49:00.349Z,14.10
2023-03-09T05:51:29.585Z,14.45
2023-03-09T05:53:58.212Z,14.35
2023-03-09T05:56:27.753Z,14.27
2023-03-09T05:59:00.562Z,13.77
2023-03-09T06:01:30.415Z,13.63
2023-03-09T06:04:20.396Z,13.00
2023-03-09T06:06:53.644Z,12.93
2023-03-09T06:09:26.841Z,13.63
2023-03-09T06:11:56.020Z,13.20
2023-03-09T06:14:25.324Z,13.85
2023-03-09T06:16:54.904Z,13.13
2023-03-09T06:19:24.523Z,12.75
2023-03-09T06:21:55.790Z,13.60
2023-03-09T06:24:24.591Z,13.73
2023-03-09T06:26:53.986Z,13.43
2023-03-09T06:29:32.107Z,12.73
2023-03-09T06:32:01.468Z,13.02
2023-03-09T06:34:34.863Z,12.85
2023-03-09T06:37:07.368Z,13.90
2023-03-09T06:39:36.140Z,14.07
2023-03-09T06:42:07.006Z,13.18
2023-03-09T06:44:43.886Z,13.00
2023-03-09T06:47:14.164Z,13.75
2023-03-09T06:49:47.017Z,12.87
2023-03-09T06:52:21.599Z,13.90
2023-03-09T06:54:50.460Z,12.75
2023-03-09T06:57:22.125Z,14.15
2023-03-09T06:59:50.812Z,12.98
2023-03-09T07:02:19.369Z,12.32
2023-03-09T07:04:49.510Z,13.43
2023-03-09T07:07:19.691Z,13.77
2023-03-09T07:09:47.927Z,13.60
2023-03-09T07:12:16.756Z,13.40
2023-03-09T07:14:45.778Z,13.00
2023-03-09T07:19:43.301Z,14.00
2023-03-09T07:22:14.113Z,14.70
2023-03-09T07:24:43.301Z,13.32
2023-03-09T07:27:14.370Z,12.88
2023-03-09T07:29:42.829Z,14.57
2023-03-09T07:32:12.298Z,13.30
2023-03-09T07:34:40.810Z,13.98
2023-03-09T07:37:09.494Z,13.65
2023-03-09T07:39:39.353Z,13.15
2023-03-09T07:42:08.691Z,13.55
2023-03-09T07:45:13.545Z,13.32
2023-03-09T07:47:42.881Z,13.55
2023-03-09T07:50:13.105Z,13.50
2023-03-09T07:52:41.706Z,12.90
2023-03-09T07:55:14.180Z,13.02
2023-03-09T07:57:44.388Z,33.03
2023-03-09T08:00:21.700Z,42.05
2023-03-09T08:02:50.100Z,16.25
2023-03-09T08:05:19.650Z,20.92
2023-03-09T08:07:49.622Z,12.90
2023-03-09T08:10:22.445Z,11.57
2023-03-09T08:12:52.455Z,10.55
2023-03-09T08:15:21.719Z,10.50
2023-03-09T08:17:51.142Z,10.30
2023-03-09T08:20:20.361Z,10.13
2023-03-09T08:22:49.300Z,10.35
2023-03-09T08:27:49.814Z,10.05
2023-03-09T08:30:22.053Z,9.60
2023-03-09T08:32:51.686Z,9.75
2023-03-09T08:35:21.666Z,9.23
2023-03-09T08:37:50.836Z,8.95
2023-03-09T08:40:21.745Z,10.10
2023-03-09T08:47:49.284Z,8.43
2023-03-09T08:50:22.953Z,8.45
2023-03-09T08:52:52.303Z,8.70
2023-03-09T08:55:22.946Z,7.93
2023-03-09T08:57:52.766Z,8.77
2023-03-09T09:00:23.001Z,7.90
2023-03-09T09:02:52.502Z,8.25
2023-03-09T09:05:22.344Z,8.07
2023-03-09T09:07:51.600Z,7.72
2023-03-09T09:10:34.845Z,8.13
2023-03-09T09:13:05.546Z,8.38
2023-03-09T09:15:34.896Z,7.93
2023-03-09T09:18:03.941Z,7.68
2023-03-09T09:20:32.374Z,7.38
2023-03-09T09:23:00.920Z,7.07
2023-03-09T09:25:30.838Z,7.70
2023-03-09T09:27:59.106Z,7.15
2023-03-09T09:30:28.058Z,7.82
2023-03-09T09:32:56.840Z,7.80
2023-03-09T09:35:26.029Z,7.68
2023-03-09T09:37:55.939Z,6.90
2023-03-09T09:40:26.050Z,7.00
2023-03-09T09:42:57.971Z,7.80
2023-03-09T09:45:32.251Z,8.10
2023-03-09T09:48:03.602Z,7.90
2023-03-09T09:50:45.240Z,8.13
2023-03-09T09:53:24.195Z,6.40
2023-03-09T09:55:54.799Z,7.80
2023-03-09T09:58:35.018Z,6.93
2023-03-09T10:01:12.529Z,7.20
2023-03-09T10:03:47.811Z,7.60
2023-03-09T10:06:19.880Z,6.75
2023-03-09T10:08:51.170Z,7.50
2023-03-09T10:11:25.959Z,7.35
2023-03-09T10:14:01.739Z,6.47
2023-03-09T10:16:36.757Z,6.40
2023-03-09T10:19:16.234Z,6.43
2023-03-09T10:21:51.111Z,6.70
2023-03-09T10:24:25.011Z,6.03
2023-03-09T10:26:59.479Z,5.65
2023-03-09T10:29:42.489Z,5.13
2023-03-09T10:32:18.114Z,5.40
2023-03-09T10:34:55.840Z,4.68
2023-03-09T10:37:27.103Z,5.78
2023-03-09T10:39:56.904Z,5.03
2023-03-09T10:42:28.400Z,5.13
2023-03-09T10:45:10.494Z,5.45
2023-03-09T10:48:00.960Z,5.55
2023-03-09T10:50:33.146Z,5.38
2023-03-09T10:53:29.775Z,5.32
2023-03-09T10:56:07.135Z,5.68
2023-03-09T10:58:36.655Z,5.38
2023-03-09T11:01:21.004Z,5.13
2023-03-09T11:03:49.393Z,5.55
2023-03-09T11:06:33.937Z,5.60
2023-03-09T11:09:15.846Z,5.50
2023-03-09T11:11:48.393Z,5.03
2023-03-09T11:14:28.463Z,5.38
2023-03-09T11:17:02.116Z,5.72
2023-03-09T11:22:12.379Z,4.75
2023-03-09T11:24:46.242Z,5.22
2023-03-09T11:27:21.156Z,5.30
2023-03-09T11:29:56.787Z,5.18
2023-03-09T11:32:26.546Z,5.75
2023-03-09T11:34:55.827Z,5.20
2023-03-09T11:37:31.056Z,4.75
2023-03-09T11:40:08.839Z,4.60
2023-03-09T11:42:42.944Z,5.45
2023-03-09T11:45:20.786Z,5.45
2023-03-09T11:47:57.226Z,5.53
2023-03-09T11:50:33.096Z,5.70
2023-03-09T11:53:08.046Z,5.30
2023-03-09T11:55:40.494Z,5.70
2023-03-09T11:58:15.412Z,5.05
2023-03-09T12:00:48.113Z,5.35
2023-03-09T12:03:21.251Z,5.10
2023-03-09T12:05:54.998Z,6.32
2023-03-09T12:08:31.705Z,5.03
2023-03-09T12:11:08.673Z,5.55
2023-03-09T12:13:41.152Z,5.00
2023-03-09T12:16:20.431Z,5.20
2023-03-09T12:19:01.220Z,5.03
2023-03-09T12:21:33.792Z,4.80
2023-03-09T12:24:20.506Z,4.28
2023-03-09T12:27:00.179Z,4.55
2023-03-09T12:29:35.582Z,3.97
2023-03-09T12:32:42.222Z,5.05
2023-03-09T12:35:44.893Z,4.88
2023-03-09T12:38:23.900Z,4.57
2023-03-09T12:40:52.985Z,4.80
2023-03-09T12:43:53.794Z,6.18
2023-03-09T12:47:00.964Z,5.00
2023-03-09T12:49:35.245Z,5.07
2023-03-09T12:52:46.957Z,4.53
2023-03-09T12:55:20.852Z,5.72
2023-03-09T12:57:51.954Z,6.47
2023-03-09T13:00:31.059Z,5.83
2023-03-09T13:03:05.852Z,6.20
2023-03-09T13:05:44.312Z,5.72
2023-03-09T13:08:29.617Z,5.65
2023-03-09T13:11:33.207Z,6.00
2023-03-09T13:14:03.930Z,6.20
2023-03-09T13:16:52.898Z,5.68
2023-03-09T13:19:56.766Z,6.07
2023-03-09T13:22:43.800Z,5.07
2023-03-09T13:25:34.873Z,5.78
2023-03-09T13:28:23.378Z,5.47
2023-03-09T13:31:00.200Z,6.07
2023-03-09T13:33:32.011Z,6.68
2023-03-09T13:36:24.698Z,7.00
2023-03-09T13:38:59.044Z,6.80
2023-03-09T13:41:30.056Z,6.03
2023-03-09T13:44:00.372Z,6.72
2023-03-09T13:46:32.800Z,6.47
2023-03-09T13:49:09.018Z,6.78
2023-03-09T13:51:50.533Z,7.57
2023-03-09T13:54:31.589Z,6.10
2023-03-09T13:57:05.375Z,7.25
2023-03-09T13:59:55.499Z,6.75
2023-03-09T14:02:25.727Z,6.97
2023-03-09T14:05:42.426Z,7.53
2023-03-09T14:07:58.215Z,6.40
2023-03-09T14:10:30.768Z,7.10
2023-03-09T14:13:03.217Z,7.93
2023-03-09T14:15:37.864Z,7.63
2023-03-09T14:18:07.046Z,8.02
2023-03-09T14:20:41.104Z,7.63
2023-03-09T14:23:20.957Z,6.90
2023-03-09T14:25:50.969Z,7.90
2023-03-09T14:28:27.095Z,7.53
2023-03-09T14:31:15.771Z,8.25
2023-03-09T14:33:59.686Z,8.27
2023-03-09T14:36:31.054Z,8.60
2023-03-09T14:39:02.312Z,7.72
2023-03-09T14:41:32.500Z,8.20
2023-03-09T14:44:01.002Z,8.15
2023-03-09T14:46:32.037Z,8.18
2023-03-09T14:49:04.676Z,8.20
2023-03-09T14:51:35.838Z,8.15
2023-03-09T14:54:12.463Z,9.15
2023-03-09T14:56:40.953Z,9.00
2023-03-09T14:59:13.332Z,9.20
2023-03-09T15:01:58.766Z,9.05
2023-03-09T15:04:29.922Z,9.77
2023-03-09T15:06:59.086Z,9.82
2023-03-09T15:09:27.323Z,10.65
2023-03-09T15:11:58.937Z,9.57
2023-03-09T15:14:31.380Z,10.75
2023-03-09T15:17:04.071Z,10.65
2023-03-09T15:19:32.860Z,10.05
2023-03-09T15:22:03.698Z,10.63
2023-03-09T15:24:33.684Z,11.32
2023-03-09T15:27:04.046Z,11.52
2023-03-09T15:29:33.417Z,10.75
2023-03-09T15:32:08.405Z,11.73
2023-03-09T15:34:39.035Z,10.88
2023-03-09T15:37:08.299Z,12.32
2023-03-09T15:39:37.645Z,12.02
2023-03-09T15:42:06.603Z,11.73
2023-03-09T15:44:36.761Z,12.38
2023-03-09T15:47:07.057Z,12.38
2023-03-09T15:49:35.923Z,11.48
2023-03-09T15:52:04.392Z,11.82
2023-03-09T15:54:33.559Z,11.98
2023-03-09T15:57:02.032Z,11.85
2023-03-09T15:59:30.455Z,13.05
2023-03-09T16:02:00.123Z,13.80
2023-03-09T16:04:31.860Z,13.98
2023-03-09T16:07:02.700Z,14.35
2023-03-09T16:09:32.507Z,14.05
2023-03-09T16:12:01.839Z,15.75
2023-03-09T16:14:32.437Z,14.10
2023-03-09T16:17:02.085Z,15.32
2023-03-09T16:19:32.805Z,17.73
2023-03-09T16:22:01.332Z,17.02
2023-03-09T16:24:30.350Z,19.83
2023-03-09T16:26:59.491Z,19.65
2023-03-09T16:29:28.379Z,18.00
2023-03-09T16:32:00.975Z,18.70
2023-03-09T16:34:35.825Z,19.08
2023-03-09T16:37:06.606Z,18.83
2023-03-09T16:39:35.357Z,18.45
2023-03-09T16:42:04.828Z,17.90
2023-03-09T16:44:34.299Z,15.90
2023-03-09T16:47:14.018Z,16.30
2023-03-09T16:49:45.360Z,17.08
2023-03-09T16:52:14.174Z,18.00
2023-03-09T16:54:43.207Z,17.55
2023-03-09T16:57:12.552Z,16.80
2023-03-09T16:59:40.902Z,16.35
2023-03-09T17:02:12.597Z,16.60
2023-03-09T17:04:40.971Z,16.58
2023-03-09T17:07:12.396Z,16.40
2023-03-09T17:09:41.187Z,16.58
2023-03-09T17:12:11.697Z,15.40
2023-03-09T17:14:40.188Z,14.57
2023-03-09T17:17:10.248Z,14.75
2023-03-09T17:19:39.193Z,15.82
2023-03-09T17:22:08.127Z,15.52
2023-03-09T17:24:39.453Z,14.85
2023-03-09T17:27:08.015Z,16.23
2023-03-09T17:29:36.601Z,15.63
2023-03-09T17:32:08.630Z,17.30
2023-03-09T17:34:37.857Z,16.08
2023-03-09T17:37:06.605Z,15.93
2023-03-09T17:39:35.327Z,16.30
2023-03-09T17:42:06.614Z,17.23
2023-03-09T17:44:39.413Z,15.68
2023-03-09T17:47:09.883Z,16.45
2023-03-09T17:49:38.621Z,17.48
2023-03-09T17:52:08.310Z,16.50
2023-03-09T17:54:36.653Z,15.73
2023-03-09T17:57:09.241Z,17.35
2023-03-09T17:59:37.869Z,16.55
2023-03-09T18:02:08.262Z,16.48
2023-03-09T18:04:37.598Z,15.68
2023-03-09T18:07:18.042Z,16.60
2023-03-09T18:09:47.033Z,16.92
2023-03-09T18:12:16.847Z,18.23
2023-03-09T18:14:46.194Z,19.17
2023-03-09T18:17:15.214Z,19.77
2023-03-09T18:19:43.340Z,18.40
2023-03-09T18:22:14.864Z,20.40
2023-03-09T18:24:44.151Z,19.55
2023-03-09T18:27:13.842Z,19.30
2023-03-09T18:29:44.915Z,17.73
2023-03-09T18:32:13.258Z,17.08
2023-03-09T18:34:44.748Z,18.70
2023-03-09T18:37:12.956Z,18.05
2023-03-09T18:39:41.205Z,18.13
2023-03-09T18:42:11.048Z,21.38
2023-03-09T18:44:39.237Z,21.35
2023-03-09T18:47:10.210Z,19.45
2023-03-09T18:49:38.305Z,18.10
2023-03-09T18:52:07.922Z,19.55
2023-03-09T18:54:36.531Z,20.20
2023-03-09T18:57:05.928Z,18.00
2023-03-09T18:59:34.442Z,19.02
2023-03-09T19:02:04.633Z,15.90
2023-03-09T19:04:34.529Z,16.10
2023-03-09T19:07:02.866Z,16.25
2023-03-09T19:09:31.893Z,16.65
2023-03-09T19:12:00.705Z,17.70
2023-03-09T19:14:29.726Z,16.08
2023-03-09T19:16:58.043Z,17.25
2023-03-09T19:19:26.392Z,14.52
2023-03-09T19:21:56.281Z,14.70
2023-03-09T19:24:24.561Z,18.40
2023-03-09T19:26:53.377Z,17.77
2023-03-09T19:29:21.843Z,17.38
2023-03-09T19:31:50.160Z,16.95
2023-03-09T19:34:18.418Z,17.60
2023-03-09T19:36:46.957Z,17.63
2023-03-09T19:39:16.771Z,18.15
2023-03-09T19:41:44.760Z,17.55
2023-03-09T19:44:13.024Z,17.65
2023-03-09T19:46:43.777Z,18.42
2023-03-09T19:49:12.874Z,17.55
2023-03-09T19:51:41.599Z,19.08
2023-03-09T19:54:13.407Z,20.55
2023-03-09T19:56:44.174Z,18.60
2023-03-09T19:59:16.014Z,18.83
2023-03-09T20:01:46.935Z,19.15
2023-03-09T20:04:18.776Z,20.90
2023-03-09T20:06:50.339Z,19.23
2023-03-09T20:09:19.316Z,20.45
2023-03-09T20:11:49.358Z,21.10
2023-03-09T20:14:17.811Z,20.58
2023-03-09T20:16:46.579Z,20.58
2023-03-09T20:19:16.650Z,21.83
2023-03-09T20:21:45.459Z,19.95
2023-03-09T20:24:16.737Z,23.02
2023-03-09T20:26:47.095Z,21.88
2023-03-09T20:29:18.309Z,20.98
2023-03-09T20:31:49.627Z,20.95
2023-03-09T20:34:18.921Z,20.52
2023-03-09T20:36:47.115Z,23.38
2023-03-09T20:39:15.744Z,23.30
2023-03-09T20:41:44.462Z,26.30
2023-03-09T20:44:13.327Z,23.98
2023-03-09T20:46:43.044Z,24.45
2023-03-09T20:49:12.367Z,23.77
2023-03-09T20:51:40.700Z,24.20
2023-03-09T20:54:09.870Z,28.77
2023-03-09T20:56:38.307Z,22.00
2023-03-09T20:59:07.375Z,21.40
2023-03-09T21:01:35.825Z,23.75
2023-03-09T21:04:06.639Z,23.65
2023-03-09T21:06:35.069Z,26.13
2023-03-09T21:09:03.764Z,33.95
2023-03-09T21:11:32.847Z,24.27
2023-03-09T21:14:03.927Z,22.95
2023-03-09T21:16:33.201Z,22.65
2023-03-09T21:19:04.817Z,23.05
2023-03-09T21:21:36.310Z,22.52
2023-03-09T21:24:05.444Z,20.17
2023-03-09T21:26:34.514Z,20.00
2023-03-09T21:29:04.650Z,22.40
2023-03-09T21:31:33.531Z,22.27
2023-03-09T21:34:02.368Z,21.40
2023-03-09T21:36:30.666Z,21.52
2023-03-09T21:39:00.813Z,20.13
2023-03-09T21:41:29.557Z,23.20
2023-03-09T21:43:58.392Z,21.05
2023-03-09T21:46:28.116Z,23.13
2023-03-09T21:48:57.222Z,21.95
2023-03-09T21:51:26.390Z,21.27
2023-03-09T21:53:57.320Z,21.35
2023-03-09T21:56:27.501Z,19.08
2023-03-09T21:58:57.958Z,20.33
2023-03-09T22:01:28.136Z,19.17
2023-03-09T22:03:57.014Z,19.42
2023-03-09T22:06:27.700Z,18.25
2023-03-09T22:08:56.753Z,20.00
2023-03-09T22:11:29.530Z,17.60
2023-03-09T22:13:57.882Z,21.52
2023-03-09T22:16:29.044Z,17.63
2023-03-09T22:18:59.790Z,18.17
2023-03-09T22:21:28.699Z,17.70
2023-03-09T22:23:57.520Z,18.65
2023-03-09T22:26:27.457Z,18.75
2023-03-09T22:28:56.876Z,18.25
2023-03-09T22:31:25.863Z,17.20
2023-03-09T22:33:58.635Z,18.83
2023-03-09T22:36:27.285Z,18.40
2023-03-09T22:38:55.816Z,17.50
2023-03-09T22:41:26.526Z,16.88
2023-03-09T22:43:56.844Z,18.08
2023-03-09T22:46:27.474Z,18.05
2023-03-09T22:48:56.422Z,17.65
2023-03-09T22:51:26.504Z,18.58
2023-03-09T22:53:56.853Z,16.88
2023-03-09T22:56:26.511Z,17.60
2023-03-09T22:58:56.903Z,17.85
2023-03-09T23:01:26.862Z,17.15
2023-03-09T23:03:57.721Z,16.35
2023-03-09T23:06:28.469Z,15.82
2023-03-09T23:08:58.289Z,17.05
2023-03-09T23:11:28.393Z,15.48
2023-03-09T23:13:58.246Z,16.75
2023-03-09T23:16:26.701Z,15.32
2023-03-09T23:18:55.697Z,16.20
2023-03-09T23:21:24.740Z,16.05
2023-03-09T23:23:53.610Z,15.25
2023-03-09T23:26:22.884Z,15.15
2023-03-09T23:28:51.892Z,15.02
2023-03-09T23:31:22.264Z,14.55
2023-03-09T23:33:51.011Z,14.65
2023-03-09T23:36:23.110Z,13.18
2023-03-09T23:38:53.775Z,13.07
2023-03-09T23:41:22.072Z,14.25
2023-03-09T23:43:50.289Z,14.32
2023-03-09T23:46:19.838Z,14.32
2023-03-09T23:48:51.891Z,14.80
2023-03-09T23:51:22.228Z,16.20
2023-03-09T23:53:50.646Z,16.42
2023-03-09T23:56:19.833Z,18.90
2023-03-09T23:58:49.818Z,18.83
